Time;durP1;ratioP1;P1;durP2;ratioP2;P2;SDS_P1;SDS_P2;PMS_P1;PMS_P2;Temp;Humidity;BMP_temperature;BMP_pressure;BME280_temperature;BME280_humidity;BME280_pressure;Samples;Min_cycle;Max_cycle;Signal;HPM_P1;HPM_P2
2022/06/26 00:02:13;;;;;;;0.50;0.50;;;18.90;76.50;;;19.18;60.98;94833.34;5048015;28;20710;-78
2022/06/26 00:04:40;;;;;;;0.50;0.50;;;18.80;76.70;;;19.17;60.61;94829.06;5066917;28;20586;-77
2022/06/26 00:07:07;;;;;;;0.40;0.40;;;18.90;77.00;;;19.15;61.23;94825.84;5038184;28;20337;-79
2022/06/26 00:09:35;;;;;;;0.40;0.40;;;18.80;77.10;;;19.12;61.05;94829.78;5016445;28;20226;-78
2022/06/26 00:12:03;;;;;;;0.50;0.50;;;18.80;77.20;;;19.12;61.06;94827.13;5059363;28;20672;-79
2022/06/26 00:14:30;;;;;;;0.50;0.50;;;18.80;77.40;;;19.12;61.66;94826.34;5034808;28;20294;-78
2022/06/26 00:16:57;;;;;;;0.60;0.60;;;18.80;77.60;;;19.10;61.72;94826.56;5038338;28;20211;-79
2022/06/26 00:19:24;;;;;;;0.50;0.50;;;18.80;77.80;;;19.11;61.20;94822.06;5029054;28;20210;-78
2022/06/26 00:21:51;;;;;;;0.50;0.50;;;18.80;77.50;;;19.09;61.10;94829.50;5048851;28;20784;-78
2022/06/26 00:24:18;;;;;;;0.50;0.50;;;18.80;77.40;;;19.06;61.26;94822.03;5046696;28;20945;-78
2022/06/26 00:26:46;;;;;;;0.43;0.43;;;18.80;77.40;;;19.00;61.14;94818.50;5033897;28;20696;-78
2022/06/26 00:29:13;;;;;;;0.52;0.52;;;18.70;77.40;;;18.96;61.30;94817.38;5050325;28;20202;-79
2022/06/26 00:31:41;;;;;;;0.50;0.50;;;18.70;77.40;;;18.94;61.71;94830.91;5039835;28;20656;-78
2022/06/26 00:34:08;;;;;;;0.57;0.57;;;18.60;77.30;;;18.92;61.19;94838.34;5049607;28;20192;-79
2022/06/26 00:36:36;;;;;;;0.50;0.50;;;18.60;77.30;;;18.91;60.99;94847.34;5051304;28;20703;-78
2022/06/26 00:39:03;;;;;;;0.50;0.50;;;18.60;77.20;;;18.87;61.26;94849.66;5055390;28;20191;-79
2022/06/26 00:41:30;;;;;;;0.50;0.50;;;18.60;77.30;;;18.83;61.25;94851.19;5051137;28;20711;-78
2022/06/26 00:43:57;;;;;;;0.50;0.50;;;18.50;77.30;;;18.80;61.64;94846.38;5041233;28;20294;-79
2022/06/26 00:46:24;;;;;;;0.50;0.50;;;18.50;77.40;;;18.76;61.65;94836.47;5068300;28;20236;-79
2022/06/26 00:48:53;;;;;;;0.52;0.52;;;18.50;77.50;;;18.75;61.89;94842.84;5037346;28;20195;-78
2022/06/26 00:51:21;;;;;;;0.50;0.50;;;18.50;77.50;;;18.71;61.33;94837.22;5068165;28;20325;-79
2022/06/26 00:53:48;;;;;;;0.57;0.57;;;18.50;77.60;;;18.68;61.75;94845.69;5070591;28;20679;-78
2022/06/26 00:56:15;;;;;;;0.40;0.40;;;18.40;77.60;;;18.67;61.58;94838.75;5038672;28;20250;-78
2022/06/26 00:58:43;;;;;;;0.50;0.50;;;18.40;77.80;;;18.66;62.27;94843.28;5038467;28;20205;-78
2022/06/26 01:01:10;;;;;;;0.40;0.40;;;18.40;78.00;;;18.64;62.06;94832.09;5050943;28;20211;-78
2022/06/26 01:03:38;;;;;;;0.47;0.47;;;18.30;78.20;;;18.68;61.92;94835.06;5047692;28;20194;-78
2022/06/26 01:06:08;;;;;;;0.40;0.40;;;18.40;78.50;;;18.72;62.17;94836.16;5053543;28;20305;-78
2022/06/26 01:08:36;;;;;;;0.60;0.60;;;18.40;78.90;;;18.77;62.50;94838.09;5054011;28;20198;-78
2022/06/26 01:11:17;;;;;;;0.60;0.60;;;18.40;79.10;;;18.79;62.72;94838.66;5037112;28;20206;-78
2022/06/26 01:13:50;;;;;;;0.52;0.52;;;18.40;79.20;;;18.80;62.71;94832.31;5038434;28;20215;-77
2022/06/26 01:16:18;;;;;;;0.50;0.50;;;18.50;79.50;;;18.88;63.16;94837.16;5046931;28;20649;-79
2022/06/26 01:18:52;;;;;;;0.60;0.60;;;18.50;79.60;;;18.92;63.16;94846.31;5054481;28;20243;-78
2022/06/26 01:21:21;;;;;;;0.50;0.50;;;18.60;79.50;;;18.93;63.00;94839.13;5021321;28;20223;-78
2022/06/26 01:23:49;;;;;;;0.60;0.60;;;18.60;79.40;;;18.93;62.68;94842.59;5054074;28;20195;-78
2022/06/26 01:26:18;;;;;;;0.50;0.50;;;18.60;79.10;;;18.92;63.09;94843.66;5053623;28;20219;-77
2022/06/26 01:28:46;;;;;;;0.50;0.50;;;18.60;79.20;;;18.90;62.53;94844.91;5048419;28;20290;-78
2022/06/26 01:31:13;;;;;;;0.60;0.60;;;18.70;79.20;;;18.92;63.02;94843.66;5054514;28;20218;-78
2022/06/26 01:33:41;;;;;;;0.60;0.60;;;18.60;79.40;;;18.91;62.87;94841.19;5053258;28;20229;-78
2022/06/26 01:36:08;;;;;;;0.52;0.52;;;18.70;79.40;;;18.94;63.16;94846.06;5032223;28;20223;-78
2022/06/26 01:38:37;;;;;;;0.50;0.50;;;18.70;79.50;;;18.93;62.90;94847.91;5039419;28;20210;-77
2022/06/26 01:41:05;;;;;;;0.57;0.57;;;18.70;80.30;;;18.92;62.93;94841.00;5039568;28;20696;-78
2022/06/26 01:43:35;;;;;;;0.50;0.50;;;18.70;79.50;;;18.90;62.81;94836.94;5057781;28;20571;-78
2022/06/26 01:46:04;;;;;;;0.50;0.50;;;18.60;79.70;;;18.91;63.04;94839.38;5056921;28;20257;-79
2022/06/26 01:48:37;;;;;;;0.50;0.50;;;18.60;79.50;;;18.89;63.00;94830.81;5040488;28;20203;-78
2022/06/26 01:51:07;;;;;;;0.50;0.50;;;18.60;79.30;;;18.88;62.78;94837.16;5067202;28;20242;-78
2022/06/26 01:53:36;;;;;;;0.40;0.40;;;18.60;79.30;;;18.84;62.98;94828.88;5066300;28;20234;-78
2022/06/26 01:56:05;;;;;;;0.57;0.57;;;18.60;79.30;;;18.83;62.92;94834.44;5038681;28;20688;-79
2022/06/26 01:58:35;;;;;;;0.50;0.50;;;18.60;79.40;;;18.81;62.99;94840.03;5053919;28;20250;-77
2022/06/26 02:01:05;;;;;;;0.60;0.60;;;18.50;79.30;;;18.80;63.17;94841.06;5071624;28;20680;-78
2022/06/26 02:03:32;;;;;;;0.50;0.50;;;18.60;79.40;;;18.80;63.10;94845.59;5057405;28;20208;-78
2022/06/26 02:06:00;;;;;;;0.57;0.57;;;18.50;79.60;;;18.81;63.45;94834.69;5070055;28;20322;-79
2022/06/26 02:08:27;;;;;;;0.60;0.60;;;18.50;79.60;;;18.83;63.17;94835.25;5055803;28;20301;-77
2022/06/26 02:13:44;;;;;;;0.60;0.60;;;18.50;79.60;;;18.78;63.48;94834.38;5039547;28;20318;-79
2022/06/26 02:16:19;;;;;;;0.50;0.50;;;18.60;79.60;;;18.75;63.43;94838.34;5041404;28;20214;-78
2022/06/26 02:18:50;;;;;;;0.57;0.57;;;18.50;79.70;;;18.70;62.99;94831.09;5020775;28;20195;-79
2022/06/26 02:21:21;;;;;;;0.60;0.60;;;18.60;79.60;;;18.68;63.05;94841.16;5069106;28;20579;-78
2022/06/26 02:23:51;;;;;;;0.60;0.60;;;18.60;79.70;;;18.63;63.45;94833.13;5062268;28;20206;-78
2022/06/26 02:26:19;;;;;;;0.60;0.60;;;18.50;79.60;;;18.62;63.10;94841.34;5047502;28;20272;-79
2022/06/26 02:28:47;;;;;;;0.50;0.50;;;18.50;79.60;;;18.61;63.53;94845.84;5050304;28;20230;-79
2022/06/26 02:31:15;;;;;;;0.60;0.60;;;18.30;79.40;;;18.58;63.71;94842.88;5043044;28;20235;-79
2022/06/26 02:33:42;;;;;;;0.50;0.50;;;18.40;79.60;;;18.56;63.64;94846.56;5036605;28;20223;-79
2022/06/26 02:36:13;;;;;;;0.50;0.50;;;18.40;79.60;;;18.54;63.16;94845.19;5020879;28;20239;-78
2022/06/26 02:38:40;;;;;;;0.50;0.50;;;18.30;79.60;;;18.51;63.69;94848.34;5058027;28;20198;-78
2022/06/26 02:41:07;;;;;;;0.52;0.52;;;18.30;79.60;;;18.49;63.83;94845.97;5067382;28;20207;-78
2022/06/26 02:43:36;;;;;;;0.50;0.50;;;18.30;79.90;;;18.46;63.79;94843.78;5058671;28;20199;-78
2022/06/26 02:46:05;;;;;;;0.50;0.50;;;18.30;79.90;;;18.49;63.41;94842.47;5037566;28;20269;-79
2022/06/26 02:48:32;;;;;;;0.50;0.50;;;18.20;79.70;;;18.47;63.50;94850.69;5039554;28;20617;-78
2022/06/26 02:51:00;;;;;;;0.57;0.57;;;18.20;79.70;;;18.42;63.92;94855.13;5055415;28;20231;-79
2022/06/26 02:53:27;;;;;;;0.50;0.50;;;18.20;79.70;;;18.41;64.05;94854.31;5067334;28;20215;-79
2022/06/26 02:55:54;;;;;;;0.57;0.57;;;18.20;79.90;;;18.39;64.02;94861.72;5062659;28;20222;-78
2022/06/26 02:58:21;;;;;;;0.50;0.50;;;18.20;79.90;;;18.42;64.01;94865.75;5046135;28;20249;-80
2022/06/26 03:00:53;;;;;;;0.50;0.50;;;18.20;80.10;;;18.42;64.17;94865.75;5075815;28;20249;-79
2022/06/26 03:03:20;;;;;;;0.50;0.50;;;18.20;80.10;;;18.40;64.11;94873.97;5043406;28;20199;-78
2022/06/26 03:05:48;;;;;;;0.50;0.50;;;18.20;80.20;;;18.40;63.82;94880.06;5060549;28;20586;-79
2022/06/26 03:08:15;;;;;;;0.60;0.60;;;18.20;80.40;;;18.40;64.57;94873.97;5058753;28;20672;-80
2022/06/26 03:10:42;;;;;;;0.50;0.50;;;18.20;80.40;;;18.42;64.29;94879.84;5050950;28;20235;-79
2022/06/26 03:13:09;;;;;;;0.50;0.50;;;18.20;80.50;;;18.45;64.27;94881.19;5066747;28;20331;-80
2022/06/26 03:15:36;;;;;;;0.60;0.60;;;18.10;80.30;;;18.46;64.50;94883.59;5051019;28;20210;-79
2022/06/26 03:18:04;;;;;;;0.60;0.60;;;18.20;80.50;;;18.50;64.58;94879.41;5066301;28;20295;-80
2022/06/26 03:20:31;;;;;;;0.50;0.50;;;18.20;80.40;;;18.50;64.55;94881.28;5053613;28;20444;-80
2022/06/26 03:22:59;;;;;;;0.57;0.57;;;18.30;80.50;;;18.50;64.68;94882.06;5035279;28;20245;-77
2022/06/26 03:25:26;;;;;;;0.57;0.57;;;18.30;80.60;;;18.54;64.54;94877.06;5049206;28;20219;-78
2022/06/26 03:27:54;;;;;;;0.50;0.50;;;18.30;80.50;;;18.52;64.29;94877.31;5066597;28;20374;-78
2022/06/26 03:30:21;;;;;;;0.60;0.60;;;18.30;80.50;;;18.49;64.63;94869.03;5064585;28;20234;-79
2022/06/26 03:32:50;;;;;;;0.50;0.50;;;18.40;80.60;;;18.47;64.51;94869.28;5062796;28;20565;-79
2022/06/26 03:35:17;;;;;;;0.50;0.50;;;18.40;80.50;;;18.43;64.47;94886.75;5052866;28;20211;-78
2022/06/26 03:37:46;;;;;;;0.50;0.50;;;18.30;80.30;;;18.39;64.59;94883.78;5052664;28;20669;-78
2022/06/26 03:40:14;;;;;;;0.50;0.50;;;18.30;80.50;;;18.37;64.81;94888.53;5056308;28;20409;-79
2022/06/26 03:42:42;;;;;;;0.40;0.40;;;18.40;80.60;;;18.36;64.83;94900.19;5031663;28;20692;-78
2022/06/26 03:45:10;;;;;;;0.50;0.50;;;18.30;80.50;;;18.36;64.99;94899.41;5082843;28;20735;-78
2022/06/26 03:47:37;;;;;;;0.50;0.50;;;18.20;80.40;;;18.38;64.86;94906.06;5051688;28;20214;-79
2022/06/26 03:50:06;;;;;;;0.50;0.50;;;18.30;80.50;;;18.42;64.92;94914.38;5081694;28;20225;-79
2022/06/26 03:52:33;;;;;;;0.40;0.40;;;18.20;81.30;;;18.41;65.02;94904.78;5037761;28;20191;-79
2022/06/26 03:55:03;;;;;;;0.50;0.50;;;18.20;80.50;;;18.46;64.82;94907.50;5033425;28;20273;-79
2022/06/26 03:57:31;;;;;;;0.50;0.50;;;18.20;80.60;;;18.48;65.11;94913.41;5034978;28;20583;-81
2022/06/26 03:59:58;;;;;;;0.40;0.40;;;18.20;80.70;;;18.52;64.93;94909.19;5046232;28;20273;-80
2022/06/26 04:02:46;;;;;;;0.50;0.50;;;18.30;81.00;;;18.56;65.03;94899.69;5063555;28;20191;-79
2022/06/26 04:05:25;;;;;;;0.50;0.50;;;18.40;81.10;;;18.61;65.37;94895.53;5050791;28;20780;-79
2022/06/26 04:07:57;;;;;;;0.60;0.60;;;18.30;81.10;;;18.65;65.18;94897.44;5051696;28;20217;-79
2022/06/26 04:10:30;;;;;;;0.60;0.60;;;18.40;81.30;;;18.71;65.46;94895.66;5035685;28;20223;-80
2022/06/26 04:13:04;;;;;;;0.50;0.50;;;18.40;81.30;;;18.69;65.31;94893.25;5037104;28;20220;-80
2022/06/26 04:15:38;;;;;;;0.57;0.57;;;18.50;81.50;;;18.80;65.10;94901.38;5048804;28;20345;-79
2022/06/26 04:18:06;;;;;;;0.55;0.55;;;18.60;81.60;;;18.83;64.91;94899.03;5048564;28;20199;-79
2022/06/26 04:20:34;;;;;;;0.50;0.50;;;18.60;81.50;;;18.89;65.74;94899.91;5034792;28;20215;-78
2022/06/26 04:23:10;;;;;;;0.50;0.50;;;18.70;81.70;;;18.95;65.68;94906.13;5054839;28;20202;-80
2022/06/26 04:25:40;;;;;;;0.50;0.50;;;18.70;81.90;;;18.98;65.05;94905.63;5034714;28;20215;-80
2022/06/26 04:28:08;;;;;;;0.40;0.40;;;18.70;81.40;;;19.03;65.40;94908.38;5050427;28;20287;-79
2022/06/26 04:30:38;;;;;;;0.40;0.40;;;18.70;81.30;;;19.08;65.34;94910.28;5057656;28;20242;-79
2022/06/26 04:33:06;;;;;;;0.50;0.50;;;18.80;81.40;;;19.09;65.49;94895.94;5038139;28;20639;-79
2022/06/26 04:35:35;;;;;;;0.50;0.50;;;18.80;81.40;;;19.18;65.65;94905.13;5037497;28;20305;-80
2022/06/26 04:38:03;;;;;;;0.50;0.50;;;18.90;81.40;;;19.20;65.43;94908.34;5027960;28;20643;-79
2022/06/26 04:40:31;;;;;;;0.40;0.40;;;18.90;81.30;;;19.29;65.31;94909.50;5037942;28;20214;-80
2022/06/26 04:42:58;;;;;;;0.47;0.47;;;19.00;82.10;;;19.34;64.94;94904.25;5067258;28;20249;-80
2022/06/26 04:45:25;;;;;;;0.50;0.50;;;19.10;81.30;;;19.38;64.92;94911.75;5075220;28;20676;-79
2022/06/26 04:47:56;;;;;;;0.57;0.57;;;19.10;81.30;;;19.43;65.37;94911.81;5054784;28;20221;-80
2022/06/26 04:50:25;;;;;;;0.50;0.50;;;19.20;81.40;;;19.49;65.41;94914.28;5053811;28;20265;-79
2022/06/26 04:52:53;;;;;;;0.50;0.50;;;19.20;81.70;;;19.58;65.68;94917.31;5062869;28;20206;-80
2022/06/26 04:55:26;;;;;;;0.50;0.50;;;19.30;82.00;;;19.68;65.89;94922.75;5024085;28;20222;-79
2022/06/26 04:57:54;;;;;;;0.47;0.47;;;19.40;82.20;;;19.79;65.67;94923.66;5037791;28;20190;-80
2022/06/26 05:00:21;;;;;;;0.50;0.50;;;19.50;82.20;;;19.88;65.92;94923.25;5035764;28;20567;-79
2022/06/26 05:02:55;;;;;;;0.43;0.43;;;19.60;82.20;;;20.02;65.84;94919.16;5055354;28;20252;-80
2022/06/26 05:05:36;;;;;;;0.40;0.40;;;19.70;82.10;;;20.12;65.74;94915.78;5056876;28;20368;-78
2022/06/26 05:08:29;;;;;;;0.40;0.40;;;19.80;82.00;;;20.20;65.52;94914.50;5050096;28;20228;-79
2022/06/26 05:10:57;;;;;;;0.40;0.40;;;20.00;81.80;;;20.29;65.36;94918.34;5037101;28;20216;-80
2022/06/26 05:13:25;;;;;;;0.52;0.52;;;20.10;81.80;;;20.37;65.03;94925.84;5047865;28;20247;-80
2022/06/26 05:16:23;;;;;;;0.40;0.40;;;20.10;81.80;;;20.43;65.09;94930.19;5056080;28;20719;-80
2022/06/26 05:18:50;;;;;;;0.40;0.40;;;20.20;81.90;;;20.51;65.32;94933.41;5068587;28;20201;-79
2022/06/26 05:21:21;;;;;;;0.40;0.40;;;20.30;81.70;;;20.53;64.93;94933.97;5050623;28;20685;-80
2022/06/26 05:23:48;;;;;;;0.40;0.40;;;20.30;81.60;;;20.59;65.00;94933.78;5034168;28;20627;-80
2022/06/26 05:26:15;;;;;;;0.40;0.40;;;20.40;81.50;;;20.63;65.41;94942.06;5051555;28;20214;-81
2022/06/26 05:28:43;;;;;;;0.50;0.50;;;20.40;81.40;;;20.67;64.92;94940.50;5032635;28;20194;-80
2022/06/26 05:31:10;;;;;;;0.40;0.40;;;20.50;81.60;;;20.73;65.66;94944.03;5061018;28;20227;-81
2022/06/26 05:33:40;;;;;;;0.40;0.40;;;20.50;81.80;;;20.76;64.96;94936.34;5050292;28;20221;-80
2022/06/26 05:36:10;;;;;;;0.40;0.40;;;20.60;81.80;;;20.84;65.38;94932.38;5018194;28;20220;-80
2022/06/26 05:38:39;;;;;;;0.50;0.50;;;20.60;81.60;;;20.90;64.88;94944.69;5049826;28;20214;-79
2022/06/26 05:41:06;;;;;;;0.50;0.50;;;20.70;81.90;;;20.94;65.45;94943.09;5047139;28;20564;-79
2022/06/26 05:43:36;;;;;;;0.40;0.40;;;20.80;81.90;;;20.98;65.61;94940.72;5048563;28;20228;-80
2022/06/26 05:46:07;;;;;;;0.40;0.40;;;20.90;82.10;;;21.09;65.49;94950.41;5054217;28;20233;-81
2022/06/26 05:48:59;;;;;;;0.40;0.40;;;20.90;81.90;;;21.15;65.67;94951.25;5056043;28;20273;-79
2022/06/26 05:51:31;;;;;;;0.40;0.40;;;21.00;81.90;;;21.22;65.15;94957.16;5051389;28;20237;-79
2022/06/26 05:54:17;;;;;;;0.40;0.40;;;21.00;81.80;;;21.27;65.66;94953.72;5053237;28;20235;-80
2022/06/26 05:56:56;;;;;;;0.40;0.40;;;21.10;82.00;;;21.39;65.49;94962.31;5047202;28;20193;-79
2022/06/26 05:59:47;;;;;;;0.40;0.40;;;21.30;82.10;;;21.47;65.58;94950.38;5073022;28;20226;-79
2022/06/26 06:02:31;;;;;;;0.40;0.40;;;21.30;81.80;;;21.56;65.49;94959.50;5056135;28;20206;-80
2022/06/26 06:04:58;;;;;;;0.50;0.50;;;21.40;81.90;;;21.68;65.16;94961.94;5040974;28;20231;-79
2022/06/26 06:07:26;;;;;;;0.40;0.40;;;21.40;82.10;;;21.80;65.73;94961.75;5055232;28;20197;-80
2022/06/26 06:09:53;;;;;;;0.40;0.40;;;21.50;82.20;;;21.91;65.82;94963.38;5055632;28;20257;-80
2022/06/26 06:12:20;;;;;;;0.40;0.40;;;21.70;82.50;;;22.03;65.79;94971.16;5039872;28;20203;-80
2022/06/26 06:14:49;;;;;;;0.40;0.40;;;21.80;82.40;;;22.16;65.49;94958.38;5045595;28;20316;-79
2022/06/26 06:20:19;;;;;;;0.40;0.40;;;22.00;82.30;;;22.41;65.37;94967.53;5055386;28;20269;-80
2022/06/26 06:22:53;;;;;;;0.60;0.60;;;22.20;82.30;;;22.52;65.02;94967.28;5038456;28;20199;-79
2022/06/26 06:25:23;;;;;;;0.40;0.40;;;22.20;82.00;;;22.63;65.00;94961.91;5057196;28;20231;-80
2022/06/26 06:27:51;;;;;;;0.40;0.40;;;22.30;82.00;;;22.77;65.09;94979.03;5058033;28;20207;-80
2022/06/26 06:30:23;;;;;;;0.40;0.40;;;22.50;81.90;;;22.86;64.93;94969.44;5055886;28;20228;-80
2022/06/26 06:32:51;;;;;;;0.30;0.30;;;22.60;81.80;;;23.00;65.07;94977.69;5038280;28;20210;-80
2022/06/26 06:35:40;;;;;;;0.40;0.40;;;22.70;81.80;;;23.13;64.84;94980.88;5073400;28;20217;-80
2022/06/26 06:38:08;;;;;;;0.38;0.38;;;22.90;81.60;;;23.24;64.92;94982.53;5038776;28;20199;-81
2022/06/26 06:40:37;;;;;;;0.40;0.40;;;22.90;81.60;;;23.37;64.63;94986.50;5035947;28;20558;-80
2022/06/26 06:43:10;;;;;;;0.40;0.40;;;23.10;81.40;;;23.49;64.44;94984.31;5047030;28;20644;-80
2022/06/26 06:45:56;;;;;;;0.40;0.40;;;23.20;81.10;;;23.60;64.51;94974.41;5056395;28;20241;-80
2022/06/26 06:48:26;;;;;;;0.32;0.32;;;23.40;81.20;;;23.78;64.42;94972.22;5068798;28;20290;-80
2022/06/26 06:51:13;;;;;;;0.50;0.50;;;23.50;81.10;;;23.98;63.65;94982.06;5073295;28;20304;-80
2022/06/26 06:53:41;;;;;;;0.30;0.30;;;23.60;80.50;;;24.16;63.49;94985.16;5036558;28;20261;-80
2022/06/26 06:56:09;;;;;;;0.30;0.30;;;23.90;80.60;;;24.34;63.40;94979.19;5036538;28;20216;-80
2022/06/26 06:58:37;;;;;;;0.50;0.50;;;24.00;80.10;;;24.49;62.69;94977.50;5052528;28;20199;-80
2022/06/26 07:01:07;;;;;;;0.38;0.38;;;24.10;79.70;;;24.62;61.96;94976.88;5066724;28;20663;-79
2022/06/26 07:03:34;;;;;;;0.40;0.40;;;24.30;79.20;;;24.77;61.76;94984.03;5052800;28;20221;-80
2022/06/26 07:06:02;;;;;;;0.30;0.30;;;24.50;79.10;;;24.89;61.93;94986.31;5052925;28;20224;-79
2022/06/26 07:08:31;;;;;;;0.40;0.40;;;24.60;78.60;;;25.01;61.60;94985.97;5045759;28;20651;-79
2022/06/26 07:10:59;;;;;;;0.50;0.50;;;24.70;78.80;;;25.11;61.25;94983.22;5056025;28;20238;-80
2022/06/26 07:13:26;;;;;;;0.30;0.30;;;24.80;78.60;;;25.20;60.77;94983.38;5056119;28;20213;-81
2022/06/26 07:15:54;;;;;;;0.30;0.30;;;24.90;77.70;;;25.28;59.78;94981.97;5070765;28;20226;-80
2022/06/26 07:18:24;;;;;;;0.30;0.30;;;25.10;77.00;;;25.32;60.39;94981.13;5053398;28;20655;-78
2022/06/26 07:20:54;;;;;;;0.28;0.28;;;25.10;77.30;;;25.38;59.47;94976.53;5056876;28;20229;-79
2022/06/26 07:23:22;;;;;;;0.47;0.47;;;25.20;76.50;;;25.37;59.53;94983.78;5054460;28;20212;-78
2022/06/26 07:26:07;;;;;;;0.30;0.30;;;25.20;76.20;;;25.34;58.96;94983.50;5049776;28;20321;-79
2022/06/26 07:28:37;;;;;;;0.32;0.32;;;25.20;75.60;;;25.28;58.05;94981.97;5020241;28;20210;-79
2022/06/26 07:31:05;;;;;;;0.40;0.40;;;25.20;75.20;;;25.23;57.99;94982.81;5062876;28;20249;-79
2022/06/26 07:36:20;;;;;;;0.30;0.30;;;25.10;75.20;;;25.05;58.00;94979.75;5068501;28;20230;-77
2022/06/26 07:38:47;;;;;;;0.40;0.40;;;25.00;75.00;;;24.98;57.75;94984.66;5075305;28;20199;-79
2022/06/26 07:41:15;;;;;;;0.40;0.40;;;24.90;75.00;;;24.92;58.20;94991.94;5045781;28;20332;-78
2022/06/26 07:43:42;;;;;;;0.40;0.40;;;24.90;74.90;;;24.88;58.40;94995.47;5036660;28;20193;-79
2022/06/26 07:46:09;;;;;;;0.60;0.60;;;24.80;75.00;;;24.84;58.43;94994.41;5068104;28;20231;-79
2022/06/26 07:48:38;;;;;;;0.30;0.30;;;24.70;75.50;;;24.82;58.65;94996.59;5055183;28;20666;-81
2022/06/26 07:51:07;;;;;;;0.40;0.40;;;24.70;75.50;;;24.82;59.01;94993.91;5062483;28;20232;-79
2022/06/26 07:53:36;;;;;;;0.40;0.40;;;24.70;75.40;;;24.83;58.95;95001.69;5051916;28;20302;-81
2022/06/26 07:56:05;;;;;;;0.30;0.30;;;24.60;75.20;;;24.86;58.80;95000.31;5064601;28;20225;-80
2022/06/26 07:58:32;;;;;;;0.50;0.50;;;24.60;75.40;;;24.86;58.67;94998.41;5071870;28;20200;-79
2022/06/26 08:00:59;;;;;;;0.38;0.38;;;24.60;75.60;;;24.89;58.79;94997.06;5067785;28;20227;-79
2022/06/26 08:03:26;;;;;;;0.30;0.30;;;24.60;75.90;;;24.91;59.05;94998.41;5050942;28;20302;-79
2022/06/26 08:05:53;;;;;;;0.40;0.40;;;24.60;75.80;;;24.95;58.99;95001.31;5051219;28;20224;-79
2022/06/26 08:08:20;;;;;;;0.30;0.30;;;24.60;75.60;;;25.00;58.85;94992.41;5035148;28;20291;-80
2022/06/26 08:10:47;;;;;;;0.30;0.30;;;24.60;75.80;;;25.06;58.91;94999.34;5050304;28;20229;-80
2022/06/26 08:13:15;;;;;;;0.30;0.30;;;24.70;76.10;;;25.13;59.00;94990.97;5051790;28;20313;-80
2022/06/26 08:15:42;;;;;;;0.35;0.35;;;24.80;76.30;;;25.21;59.50;94991.16;5033867;28;20227;-80
2022/06/26 08:18:10;;;;;;;0.50;0.50;;;24.80;76.30;;;25.33;59.05;94985.41;5035067;28;20238;-80
2022/06/26 08:20:38;;;;;;;0.30;0.30;;;24.90;76.20;;;25.44;58.91;94990.69;5050733;28;20220;-80
2022/06/26 08:23:05;;;;;;;0.30;0.30;;;25.00;76.30;;;25.55;59.17;94984.16;5047656;28;20244;-80
2022/06/26 08:25:32;;;;;;;0.40;0.40;;;25.10;76.00;;;25.68;58.78;94980.78;5051410;28;20707;-79
2022/06/26 08:28:01;;;;;;;0.30;0.30;;;25.30;75.70;;;25.82;58.41;94991.63;5051596;28;20204;-80
2022/06/26 08:30:28;;;;;;;0.30;0.30;;;25.40;75.70;;;25.94;58.15;94983.16;5051383;28;20681;-80
2022/06/26 08:32:58;;;;;;;0.30;0.30;;;25.50;75.20;;;26.09;58.46;94989.47;5054290;28;20211;-80
2022/06/26 08:35:27;;;;;;;0.30;0.30;;;25.60;75.20;;;26.21;57.71;94979.09;5067766;28;20260;-81
2022/06/26 08:37:55;;;;;;;0.30;0.30;;;25.80;74.80;;;26.36;57.48;94989.59;5054611;28;20188;-79
2022/06/26 08:40:23;;;;;;;0.30;0.30;;;25.90;75.10;;;26.51;57.34;94985.94;5054555;28;20255;-79
2022/06/26 08:42:53;;;;;;;0.40;0.40;;;26.10;74.80;;;26.69;56.98;94996.97;5039777;28;20675;-80
2022/06/26 08:45:22;;;;;;;0.40;0.40;;;26.30;74.80;;;26.88;56.74;94991.59;5034324;28;20286;-79
2022/06/26 08:47:53;;;;;;;0.30;0.30;;;26.50;73.80;;;27.06;56.31;94992.66;5034457;28;20290;-79
2022/06/26 08:50:22;;;;;;;0.30;0.30;;;26.70;73.20;;;27.26;55.80;94991.50;5017910;28;20267;-78
2022/06/26 08:52:52;;;;;;;0.30;0.30;;;26.90;73.40;;;27.42;55.70;94993.94;5051541;28;20219;-79
2022/06/26 08:55:20;;;;;;;0.40;0.40;;;27.10;73.60;;;27.59;55.66;94996.06;5050950;28;20702;-78
2022/06/26 08:57:48;;;;;;;0.30;0.30;;;27.30;72.70;;;27.73;55.59;94991.44;5070871;28;20191;-79
2022/06/26 09:00:16;;;;;;;0.32;0.32;;;27.40;72.60;;;27.88;55.00;94992.25;5041944;28;20221;-79
2022/06/26 09:02:44;;;;;;;0.30;0.30;;;27.60;72.30;;;28.05;55.29;94997.06;5051819;28;20680;-79
2022/06/26 09:05:12;;;;;;;0.30;0.30;;;27.70;72.20;;;28.23;54.80;94985.34;5053789;28;20316;-78
2022/06/26 09:07:52;;;;;;;0.40;0.40;;;27.90;71.50;;;28.42;54.21;94989.81;5066890;28;20251;-79
2022/06/26 09:10:20;;;;;;;0.40;0.40;;;28.10;71.20;;;28.62;54.26;94983.16;5033950;28;20248;-80
2022/06/26 09:12:56;;;;;;;0.30;0.30;;;28.30;71.50;;;28.79;54.29;94985.22;5033415;28;20583;-80
2022/06/26 09:15:25;;;;;;;0.30;0.30;;;28.50;70.70;;;28.96;53.91;94992.66;5060772;28;20702;-79
2022/06/26 09:18:02;;;;;;;0.30;0.30;;;28.60;69.90;;;29.14;53.10;94987.34;5058174;28;20225;-80
2022/06/26 09:20:32;;;;;;;0.40;0.40;;;28.80;69.60;;;29.27;52.58;94972.97;5034504;28;20227;-80
2022/06/26 09:23:01;;;;;;;0.28;0.28;;;29.00;69.80;;;29.43;51.45;94981.53;5061025;28;20252;-80
2022/06/26 09:25:45;;;;;;;0.30;0.30;;;29.20;69.00;;;29.55;51.87;94979.03;5068916;28;20704;-79
2022/06/26 09:28:22;;;;;;;0.40;0.40;;;29.30;68.40;;;29.68;50.64;94987.34;5066070;28;20226;-81
2022/06/26 09:30:58;;;;;;;0.30;0.30;;;29.50;67.80;;;29.77;50.57;94987.38;5034226;28;20216;-80
2022/06/26 09:33:31;;;;;;;0.30;0.30;;;29.60;67.50;;;29.84;50.77;94987.72;5034748;28;20183;-80
2022/06/26 09:36:01;;;;;;;0.40;0.40;;;29.70;67.40;;;29.91;51.11;94982.69;5037858;28;20567;-80
2022/06/26 09:38:35;;;;;;;0.30;0.30;;;29.70;67.60;;;29.97;50.12;94988.75;5069276;28;20205;-80
2022/06/26 09:41:08;;;;;;;0.30;0.30;;;29.80;66.00;;;29.93;49.34;94985.06;5054632;28;20230;-80
2022/06/26 09:43:38;;;;;;;0.30;0.30;;;29.80;65.90;;;29.89;49.47;94984.88;5061547;28;20217;-80
2022/06/26 09:46:13;;;;;;;0.30;0.30;;;29.80;65.90;;;29.82;49.13;94985.34;5021721;28;20212;-79
2022/06/26 09:48:42;;;;;;;0.30;0.30;;;29.80;65.70;;;29.74;48.22;94990.72;5069703;28;20241;-80
2022/06/26 09:51:12;;;;;;;0.20;0.20;;;29.70;65.10;;;29.65;48.72;94982.56;5056874;28;20229;-80
2022/06/26 09:53:40;;;;;;;0.32;0.32;;;29.60;65.00;;;29.54;48.24;94990.94;5053878;28;20188;-81
2022/06/26 09:56:07;;;;;;;0.20;0.20;;;29.50;64.80;;;29.47;48.57;94979.78;5034477;28;20225;-80
2022/06/26 09:58:34;;;;;;;0.30;0.30;;;29.50;64.90;;;29.46;48.43;94978.19;5042235;28;20193;-81
2022/06/26 10:06:37;;;;;;;0.30;0.30;;;29.50;65.60;;;29.58;48.57;94977.59;5068233;28;20221;-80
2022/06/26 10:09:07;;;;;;;0.32;0.32;;;29.50;65.70;;;29.68;48.85;94981.94;5053307;28;20260;-82
2022/06/26 10:11:40;;;;;;;0.30;0.30;;;29.60;65.20;;;29.81;48.83;94983.75;5037697;28;20214;-80
2022/06/26 10:14:25;;;;;;;0.25;0.25;;;29.60;65.70;;;29.93;48.07;94969.66;5037199;28;20199;-81
2022/06/26 10:17:19;;;;;;;0.40;0.40;;;29.80;65.20;;;30.11;48.55;94977.78;5037198;28;20233;-81
2022/06/26 10:19:56;;;;;;;0.40;0.40;;;30.00;65.30;;;30.30;48.58;94982.94;5055031;28;20229;-80
2022/06/26 10:22:24;;;;;;;0.20;0.20;;;30.10;65.10;;;30.43;47.31;94982.00;5054805;28;20750;-80
2022/06/26 10:24:57;;;;;;;0.20;0.20;;;30.20;64.60;;;30.57;47.20;94978.38;5056596;28;20219;-80
2022/06/26 10:27:30;;;;;;;0.30;0.30;;;30.40;64.00;;;30.66;46.55;94979.94;5056101;28;20215;-80
2022/06/26 10:30:13;;;;;;;0.25;0.25;;;30.50;63.80;;;30.72;46.96;94975.16;5073754;28;20218;-80
2022/06/26 10:32:40;;;;;;;0.30;0.30;;;30.60;63.80;;;30.77;47.02;94974.22;5042599;28;20199;-81
2022/06/26 10:35:10;;;;;;;0.28;0.28;;;30.70;63.70;;;30.84;46.32;94979.16;5052040;28;20692;-80
2022/06/26 10:37:49;;;;;;;0.30;0.30;;;30.70;63.30;;;30.90;46.05;94977.88;5053158;28;20231;-80
2022/06/26 10:42:52;;;;;;;0.35;0.35;;;30.80;63.10;;;31.00;45.98;94982.94;5062901;28;20226;-80
2022/06/26 10:43:11;;;;;;;0.30;0.30;;;30.90;63.00;;;31.07;45.89;94977.03;5072696;28;20601;-81
2022/06/26 10:45:40;;;;;;;0.38;0.38;;;30.90;63.20;;;31.13;45.64;94979.28;5052111;28;20293;-80
2022/06/26 10:48:20;;;;;;;0.30;0.30;;;30.90;62.70;;;31.21;45.45;94977.66;5036677;28;20205;-80